Time;durP1;ratioP1;P1;durP2;ratioP2;P2;SDS_P1;SDS_P2;PMS_P1;PMS_P2;Temp;Humidity;BMP_temperature;BMP_pressure;BME280_temperature;BME280_humidity;BME280_pressure;Samples;Min_cycle;Max_cycle;Signal;HPM_P1;HPM_P2
2023/10/29 00:01:17;;;;;;;1.40;1.30;;;;;;;14.25;nan;61173.97;4994064;28;20169;-69
2023/10/29 00:03:42;;;;;;;1.23;1.17;;;;;;;14.31;nan;61139.63;4996334;28;20168;-70
2023/10/29 00:06:10;;;;;;;0.95;0.95;;;;;;;14.13;nan;61122.47;4996216;28;20168;-71
2023/10/29 00:08:36;;;;;;;1.40;1.30;;;;;;;14.32;nan;61145.91;4996451;28;20307;-69
2023/10/29 00:11:01;;;;;;;1.05;1.05;;;;;;;14.18;nan;61120.41;4995946;28;20279;-70
2023/10/29 00:13:27;;;;;;;1.50;1.38;;;;;;;14.08;nan;61037.19;4996014;28;20165;-71
2023/10/29 00:15:52;;;;;;;1.48;1.17;;;;;;;13.92;nan;61101.91;4994518;28;20181;-71
2023/10/29 00:18:18;;;;;;;1.05;1.05;;;;;;;14.11;nan;61125.34;4995843;28;20180;-71
2023/10/29 00:20:44;;;;;;;1.40;1.30;;;;;;;13.86;nan;61102.84;4995241;28;20228;-71
2023/10/29 00:23:09;;;;;;;1.15;1.10;;;;;;;13.80;nan;61082.66;4995608;28;20252;-69
2023/10/29 00:25:34;;;;;;;1.73;1.63;;;;;;;13.64;nan;61070.34;4995122;28;20180;-70
2023/10/29 00:28:00;;;;;;;2.55;1.55;;;;;;;13.66;nan;61070.56;4995516;28;20177;-71
2023/10/29 00:30:25;;;;;;;1.13;1.13;;;;;;;13.53;nan;61047.66;4995343;28;20559;-71
2023/10/29 00:32:51;;;;;;;1.00;1.00;;;;;;;13.51;nan;60917.09;4994084;28;20164;-71
2023/10/29 00:35:16;;;;;;;1.50;1.40;;;;;;;13.70;nan;60984.69;4995470;28;20635;-69
2023/10/29 00:37:42;;;;;;;1.00;1.00;;;;;;;13.59;nan;60926.69;4995219;28;20165;-69
2023/10/29 00:40:09;;;;;;;0.98;0.98;;;;;;;13.48;nan;60888.63;4994953;28;20626;-71
2023/10/29 00:42:34;;;;;;;0.95;0.95;;;;;;;13.46;nan;61039.75;4993728;28;20181;-70
2023/10/29 00:44:59;;;;;;;1.10;1.10;;;;;;;13.59;nan;60905.59;4994889;28;20534;-70
2023/10/29 00:47:25;;;;;;;1.25;1.13;;;;;;;13.56;nan;60918.16;4995103;28;20176;-69
2023/10/29 00:49:52;;;;;;;3.60;1.25;;;;;;;13.55;nan;60973.47;4995082;28;20204;-68
2023/10/29 00:52:18;;;;;;;1.20;1.10;;;;;;;13.42;nan;61019.84;4995016;28;20632;-68
2023/10/29 00:54:44;;;;;;;3.08;1.58;;;;;;;13.24;nan;60982.19;4995448;28;20187;-69
2023/10/29 00:57:11;;;;;;;1.02;1.02;;;;;;;13.36;nan;60882.84;4995461;28;20180;-69
2023/10/29 00:59:37;;;;;;;2.38;1.40;;;;;;;13.24;nan;60990.44;4993686;28;20570;-70
2023/10/29 01:02:02;;;;;;;1.33;1.23;;;;;;;13.17;nan;60999.97;4995098;28;20173;-70
2023/10/29 01:04:28;;;;;;;1.65;1.55;;;;;;;13.02;nan;60837.44;4995016;28;20169;-69
2023/10/29 01:06:53;;;;;;;1.25;1.17;;;;;;;13.03;nan;60904.69;4995108;28;20234;-71
2023/10/29 01:09:19;;;;;;;1.10;1.10;;;;;;;12.98;nan;60814.44;4994942;28;20177;-70
2023/10/29 01:11:46;;;;;;;1.08;1.08;;;;;;;13.18;nan;60867.72;4994831;28;20176;-70
2023/10/29 01:14:11;;;;;;;1.63;1.17;;;;;;;12.93;nan;60806.25;4994400;28;20184;-70
2023/10/29 01:16:38;;;;;;;1.63;1.52;;;;;;;13.07;nan;60880.97;4994825;28;20180;-69
2023/10/29 01:19:03;;;;;;;0.95;0.95;;;;;;;12.83;nan;60667.44;4994690;28;20228;-70
2023/10/29 01:21:29;;;;;;;1.85;1.73;;;;;;;12.85;nan;60787.59;4995221;28;20176;-69
2023/10/29 01:23:55;;;;;;;0.95;0.95;;;;;;;12.89;nan;60945.88;4995127;28;20185;-71
2023/10/29 01:26:21;;;;;;;1.00;1.00;;;;;;;12.71;nan;60823.13;4993315;28;20212;-70
2023/10/29 01:28:46;;;;;;;1.23;1.23;;;;;;;12.85;nan;60949.63;4994901;28;20169;-69
2023/10/29 01:31:12;;;;;;;1.10;1.10;;;;;;;12.65;nan;60873.31;4994695;28;20207;-69
2023/10/29 01:33:38;;;;;;;0.98;0.98;;;;;;;12.94;nan;60741.31;4994832;28;20172;-71
2023/10/29 01:36:05;;;;;;;0.80;0.80;;;;;;;12.73;nan;60771.53;4994358;28;20253;-69
2023/10/29 01:38:30;;;;;;;1.30;1.20;;;;;;;12.95;nan;60793.69;4994457;28;20655;-69
2023/10/29 01:40:55;;;;;;;1.23;1.13;;;;;;;12.85;nan;60767.09;4994609;28;20169;-68
2023/10/29 01:43:21;;;;;;;1.00;1.00;;;;;;;13.07;nan;60850.75;4994323;28;20245;-68
2023/10/29 01:45:46;;;;;;;1.45;1.35;;;;;;;12.82;nan;60745.75;4994218;28;20193;-70
2023/10/29 01:48:12;;;;;;;1.30;1.20;;;;;;;12.97;nan;60908.75;4994259;28;20181;-70
2023/10/29 01:50:37;;;;;;;1.42;1.33;;;;;;;12.74;nan;60877.75;4993689;28;20215;-68
2023/10/29 01:53:02;;;;;;;1.10;1.00;;;;;;;12.95;nan;60768.03;4994449;28;20631;-71
2023/10/29 01:55:28;;;;;;;1.10;1.10;;;;;;;12.74;nan;60757.84;4992837;28;20263;-70
2023/10/29 01:57:53;;;;;;;1.40;1.02;;;;;;;13.02;nan;60829.75;4994121;28;20181;-70
2023/10/29 02:00:19;;;;;;;0.85;0.85;;;;;;;13.10;nan;61020.81;4993834;28;20176;-71
2023/10/29 02:02:47;;;;;;;1.45;1.35;;;;;;;13.16;nan;60821.88;4994031;28;20184;-69
2023/10/29 02:05:12;;;;;;;1.17;1.10;;;;;;;13.07;nan;60814.88;4994456;28;20548;-68
2023/10/29 02:07:38;;;;;;;1.02;1.00;;;;;;;13.04;nan;60832.00;4993786;28;20184;-68
2023/10/29 02:10:04;;;;;;;0.98;0.98;;;;;;;12.90;nan;61074.63;4994056;28;20188;-70
2023/10/29 02:12:30;;;;;;;1.05;1.05;;;;;;;13.06;nan;60890.66;4994119;28;20640;-69
2023/10/29 02:14:56;;;;;;;1.10;1.10;;;;;;;13.08;nan;60859.03;4993979;28;20231;-68
2023/10/29 02:17:24;;;;;;;1.40;1.10;;;;;;;12.73;nan;60923.31;4993886;28;20204;-68
2023/10/29 02:19:51;;;;;;;1.70;1.58;;;;;;;12.82;nan;60789.34;4993516;28;20234;-69
2023/10/29 02:22:16;;;;;;;0.98;0.98;;;;;;;12.92;nan;61085.13;4993441;28;20667;-69
2023/10/29 02:24:42;;;;;;;1.08;1.00;;;;;;;12.73;nan;60831.03;4993171;28;20169;-68
2023/10/29 02:27:07;;;;;;;1.00;1.00;;;;;;;12.64;nan;60741.50;4993148;28;20243;-70
2023/10/29 02:29:32;;;;;;;1.30;1.20;;;;;;;12.61;nan;60924.63;4993383;28;20275;-70
2023/10/29 02:31:58;;;;;;;1.23;1.20;;;;;;;12.68;nan;60917.09;4993746;28;20608;-70
2023/10/29 02:34:23;;;;;;;1.20;1.20;;;;;;;12.64;nan;60744.06;4992241;28;20247;-68
2023/10/29 02:36:49;;;;;;;0.90;0.90;;;;;;;12.68;nan;60820.28;4992260;28;20200;-69
2023/10/29 02:39:14;;;;;;;1.15;1.15;;;;;;;12.51;nan;60729.47;4993581;28;20602;-70
2023/10/29 02:41:40;;;;;;;1.10;1.10;;;;;;;12.47;nan;60732.66;4993195;28;20180;-68
2023/10/29 02:44:05;;;;;;;0.80;0.80;;;;;;;12.67;nan;60772.50;4993591;28;20169;-69
2023/10/29 02:46:31;;;;;;;1.00;1.00;;;;;;;12.49;nan;60744.59;4996219;28;20551;-68
2023/10/29 02:48:56;;;;;;;1.25;1.15;;;;;;;12.71;nan;60802.63;4999629;28;20173;-68
2023/10/29 02:51:22;;;;;;;0.98;0.98;;;;;;;12.60;nan;60859.44;4992980;28;20235;-69
2023/10/29 02:53:47;;;;;;;1.63;1.45;;;;;;;12.45;nan;60888.66;4993100;28;20198;-71
2023/10/29 02:56:12;;;;;;;1.13;1.10;;;;;;;12.61;nan;60786.25;4992986;28;20176;-70
2023/10/29 02:58:38;;;;;;;3.95;1.77;;;;;;;12.25;nan;60762.28;5008120;28;20185;-68
2023/10/29 03:01:08;;;;;;;0.98;0.98;;;;;;;12.46;nan;60803.25;4993311;28;20172;-70
2023/10/29 03:03:35;;;;;;;1.15;1.13;;;;;;;12.04;nan;60882.06;4993482;28;20176;-69
2023/10/29 03:06:07;;;;;;;1.10;1.10;;;;;;;12.29;nan;60874.34;4993195;28;20176;-70
2023/10/29 03:08:34;;;;;;;1.00;1.00;;;;;;;12.38;nan;60769.22;4992755;28;20235;-69
2023/10/29 03:11:00;;;;;;;1.10;1.10;;;;;;;12.37;nan;60711.75;4992837;28;20205;-69
2023/10/29 03:13:25;;;;;;;1.10;1.10;;;;;;;12.34;nan;60887.09;4993289;28;20184;-69
2023/10/29 03:15:51;;;;;;;1.33;1.23;;;;;;;12.17;nan;60706.66;4993039;28;20172;-70
2023/10/29 03:18:16;;;;;;;1.23;1.15;;;;;;;12.26;nan;60860.16;4992947;28;20197;-70
2023/10/29 03:20:42;;;;;;;1.17;1.17;;;;;;;12.29;nan;60876.91;4993013;28;20239;-68
2023/10/29 03:23:08;;;;;;;1.00;1.00;;;;;;;12.28;nan;60873.22;4992209;28;20202;-70
2023/10/29 03:25:34;;;;;;;1.25;1.15;;;;;;;12.29;nan;60718.16;4993215;28;20187;-69
2023/10/29 03:28:00;;;;;;;1.13;1.13;;;;;;;12.27;nan;60820.31;4992922;28;20180;-70
2023/10/29 03:30:26;;;;;;;1.38;1.30;;;;;;;12.22;nan;60927.38;4992759;28;20668;-69
2023/10/29 03:32:53;;;;;;;2.40;2.20;;;;;;;12.08;nan;60727.84;4992859;28;20616;-70
2023/10/29 03:35:18;;;;;;;0.80;0.80;;;;;;;12.14;nan;60600.91;4994149;28;20187;-70
2023/10/29 03:37:44;;;;;;;0.95;0.95;;;;;;;12.02;nan;60836.31;4999373;28;20235;-69
2023/10/29 03:40:09;;;;;;;0.88;0.88;;;;;;;12.09;nan;60616.34;4999638;28;20622;-70
2023/10/29 03:42:35;;;;;;;1.02;1.02;;;;;;;12.00;nan;60857.09;4997869;28;20628;-70
2023/10/29 03:45:00;;;;;;;1.00;1.00;;;;;;;12.01;nan;60607.38;4999271;28;20168;-70
2023/10/29 03:47:26;;;;;;;1.48;1.38;;;;;;;11.86;nan;60568.09;5011864;28;20179;-70
2023/10/29 03:49:51;;;;;;;1.20;1.20;;;;;;;12.07;nan;60626.34;5017887;28;20230;-70
2023/10/29 03:52:20;;;;;;;1.30;1.20;;;;;;;12.09;nan;60621.47;5018113;28;20182;-69
2023/10/29 03:54:45;;;;;;;1.42;1.33;;;;;;;11.85;nan;60574.06;5017954;28;20179;-67
2023/10/29 03:57:10;;;;;;;1.20;1.20;;;;;;;11.88;nan;60554.97;5018309;28;20180;-68
2023/10/29 03:59:36;;;;;;;1.33;1.23;;;;;;;11.99;nan;60656.31;5018584;28;20203;-70
2023/10/29 04:02:01;;;;;;;1.35;1.10;;;;;;;11.95;nan;60473.25;5018235;28;20697;-69
2023/10/29 04:04:27;;;;;;;1.15;1.13;;;;;;;11.91;nan;60521.94;5018610;28;20172;-71
2023/10/29 04:06:52;;;;;;;1.02;1.02;;;;;;;11.63;nan;60370.94;5017943;28;20203;-68
2023/10/29 04:09:18;;;;;;;1.10;1.10;;;;;;;11.81;nan;60449.91;5018116;28;20167;-70
2023/10/29 04:11:43;;;;;;;1.40;1.30;;;;;;;11.75;nan;60281.47;5017986;28;20639;-70
2023/10/29 04:14:09;;;;;;;1.00;1.00;;;;;;;11.74;nan;60221.53;5018197;28;20546;-70
2023/10/29 04:16:34;;;;;;;1.00;1.00;;;;;;;11.72;nan;60257.63;5018088;28;20195;-68
2023/10/29 04:19:00;;;;;;;0.80;0.80;;;;;;;11.65;nan;60301.00;5017247;28;20216;-70
2023/10/29 04:21:26;;;;;;;1.00;1.00;;;;;;;11.63;nan;60148.41;5016291;28;20262;-68
2023/10/29 04:23:51;;;;;;;0.90;0.90;;;;;;;11.64;nan;60059.47;5016121;28;20164;-69
2023/10/29 04:26:17;;;;;;;0.82;0.82;;;;;;;11.67;nan;60006.50;5016313;28;20176;-67
2023/10/29 04:28:42;;;;;;;1.10;1.10;;;;;;;11.42;nan;60069.34;5016454;28;20183;-69
2023/10/29 04:31:08;;;;;;;1.00;1.00;;;;;;;11.48;nan;59904.69;5016229;28;20199;-71
2023/10/29 04:33:34;;;;;;;1.23;1.17;;;;;;;11.49;nan;59682.81;5016529;28;20207;-70
2023/10/29 04:35:59;;;;;;;0.85;0.85;;;;;;;11.22;nan;59440.88;5018529;28;20646;-69
2023/10/29 04:38:25;;;;;;;1.00;1.00;;;;;;;11.24;nan;59225.88;5017975;28;20172;-71
2023/10/29 04:40:51;;;;;;;1.95;1.15;;;;;;;11.25;nan;59014.88;5018411;28;20203;-69
2023/10/29 04:43:16;;;;;;;1.00;1.00;;;;;;;11.34;nan;58207.06;5018399;28;20237;-71
2023/10/29 04:45:41;;;;;;;0.90;0.90;;;;;;;11.13;nan;58143.50;5017790;28;20207;-69
2023/10/29 04:48:07;;;;;;;1.17;1.17;;;;;;;11.32;nan;58682.69;5014546;28;20183;-69
2023/10/29 04:50:32;;;;;;;1.02;1.02;;;;;;;11.22;nan;59030.03;5014966;28;20346;-70
2023/10/29 04:52:58;;;;;;;1.10;1.10;;;;;;;11.20;nan;59004.84;5014376;28;20176;-69
2023/10/29 04:55:24;;;;;;;1.00;1.00;;;;;;;11.15;nan;59068.34;5015398;28;20165;-70
2023/10/29 04:57:49;;;;;;;1.17;1.10;;;;;;;11.18;nan;59112.53;5014522;28;20198;-71
2023/10/29 05:00:15;;;;;;;1.83;1.02;;;;;;;11.21;nan;59095.38;5015146;28;20183;-71
2023/10/29 05:02:40;;;;;;;0.98;0.98;;;;;;;11.17;nan;59165.09;5015375;28;20262;-70
2023/10/29 05:05:06;;;;;;;1.15;1.15;;;;;;;11.15;nan;59139.88;5014616;28;20184;-70
2023/10/29 05:07:35;;;;;;;2.00;1.90;;;;;;;11.06;nan;58902.69;5014639;28;20176;-71
2023/10/29 05:10:00;;;;;;;1.10;1.10;;;;;;;11.24;nan;58835.47;5014950;28;20201;-69
2023/10/29 05:12:26;;;;;;;1.55;1.45;;;;;;;10.98;nan;58628.88;5015464;28;20214;-70
2023/10/29 05:14:52;;;;;;;0.93;0.93;;;;;;;11.25;nan;57398.38;5014725;28;20191;-68
2023/10/29 05:17:17;;;;;;;1.30;1.20;;;;;;;10.89;nan;56536.16;5014302;28;20172;-68
2023/10/29 05:19:44;;;;;;;0.90;0.90;;;;;;;11.18;nan;56647.34;5014206;28;20230;-67
2023/10/29 05:22:09;;;;;;;1.10;1.10;;;;;;;11.05;nan;56211.00;5008063;28;20191;-69
2023/10/29 05:24:35;;;;;;;1.13;1.02;;;;;;;11.35;nan;55687.31;5009850;28;20196;-69
2023/10/29 05:27:01;;;;;;;1.20;1.20;;;;;;;11.54;nan;56154.03;4995297;28;20177;-70
2023/10/29 05:29:27;;;;;;;1.63;1.48;;;;;;;11.58;nan;56852.53;4994768;28;20176;-70
2023/10/29 05:31:53;;;;;;;1.30;1.20;;;;;;;11.69;nan;58484.69;4994744;28;20177;-69
2023/10/29 05:34:18;;;;;;;2.28;2.08;;;;;;;11.88;nan;58971.34;4994810;28;20183;-70
2023/10/29 05:36:44;;;;;;;1.10;1.10;;;;;;;12.14;nan;59546.31;4993342;28;20352;-68
2023/10/29 05:39:09;;;;;;;1.27;1.20;;;;;;;12.25;nan;59906.59;4993200;28;20181;-71
2023/10/29 05:41:35;;;;;;;0.90;0.90;;;;;;;12.68;nan;60199.66;4994140;28;20196;-71
2023/10/29 05:44:01;;;;;;;0.90;0.90;;;;;;;12.48;nan;60408.50;4994267;28;20231;-71
2023/10/29 05:46:27;;;;;;;1.00;1.00;;;;;;;12.58;nan;60483.13;4994394;28;20260;-71
2023/10/29 05:48:52;;;;;;;1.00;1.00;;;;;;;12.87;nan;60630.91;4993907;28;20213;-68
2023/10/29 05:51:19;;;;;;;1.35;1.20;;;;;;;12.79;nan;60639.88;4993601;28;20205;-69
2023/10/29 05:53:44;;;;;;;1.05;1.05;;;;;;;13.05;nan;60784.41;4997964;28;20169;-67
2023/10/29 05:56:10;;;;;;;0.90;0.90;;;;;;;13.04;nan;60701.22;5000309;28;20541;-66
2023/10/29 05:58:35;;;;;;;1.00;1.00;;;;;;;13.08;nan;60776.97;4994781;28;20177;-69
2023/10/29 06:01:01;;;;;;;1.20;1.10;;;;;;;13.23;nan;60855.38;4993831;28;20173;-71
2023/10/29 06:03:27;;;;;;;1.20;1.10;;;;;;;13.13;nan;60962.66;4993384;28;20161;-70
2023/10/29 06:05:54;;;;;;;1.10;1.10;;;;;;;13.06;nan;60811.19;4993682;28;20185;-71
2023/10/29 06:08:21;;;;;;;1.25;1.23;;;;;;;12.75;nan;60940.94;4994069;28;20185;-70
2023/10/29 06:10:50;;;;;;;1.88;1.45;;;;;;;12.96;nan;60792.25;4992051;28;20198;-68
2023/10/29 06:13:15;;;;;;;1.20;1.10;;;;;;;12.81;nan;60947.13;4993564;28;20169;-71
2023/10/29 06:15:41;;;;;;;2.95;1.42;;;;;;;12.97;nan;60813.88;4993267;28;20667;-69
2023/10/29 06:18:06;;;;;;;1.20;1.20;;;;;;;13.17;nan;60951.22;4993346;28;20247;-69
2023/10/29 06:20:32;;;;;;;1.75;1.17;;;;;;;12.97;nan;60816.44;4993059;28;20224;-70
2023/10/29 06:22:58;;;;;;;1.50;1.40;;;;;;;13.29;nan;60882.66;4993486;28;20252;-70
2023/10/29 06:25:24;;;;;;;0.90;0.90;;;;;;;13.46;nan;60813.97;4993326;28;20231;-68
2023/10/29 06:27:50;;;;;;;1.00;1.00;;;;;;;13.59;nan;60964.59;4993258;28;20185;-71
2023/10/29 06:30:16;;;;;;;0.80;0.80;;;;;;;13.61;nan;60979.69;4993234;28;20231;-71
2023/10/29 06:32:42;;;;;;;2.05;1.35;;;;;;;14.02;nan;60922.56;4993048;28;20173;-70
2023/10/29 06:35:08;;;;;;;0.88;0.88;;;;;;;14.01;nan;60875.22;4993434;28;20788;-70
2023/10/29 06:37:33;;;;;;;2.30;1.10;;;;;;;14.25;nan;61043.50;4993640;28;20176;-69
2023/10/29 06:39:58;;;;;;;1.40;1.30;;;;;;;14.16;nan;61098.16;4994734;28;20173;-71
2023/10/29 06:42:24;;;;;;;0.90;0.90;;;;;;;14.46;nan;60982.41;4995441;28;20176;-71
2023/10/29 06:44:49;;;;;;;1.10;1.00;;;;;;;14.65;nan;61159.47;4995893;28;20549;-70
2023/10/29 06:47:15;;;;;;;1.23;0.95;;;;;;;14.85;nan;61195.47;4995002;28;20638;-72
2023/10/29 06:49:43;;;;;;;1.02;1.02;;;;;;;14.92;nan;61166.81;4993699;28;20247;-71
2023/10/29 06:52:10;;;;;;;0.75;0.75;;;;;;;15.13;nan;61272.25;4992812;28;20183;-70
2023/10/29 06:54:35;;;;;;;0.82;0.82;;;;;;;15.24;nan;61248.69;4994159;28;20711;-70
2023/10/29 06:57:02;;;;;;;0.90;0.90;;;;;;;15.67;nan;61111.88;4993295;28;20208;-65
2023/10/29 06:59:30;;;;;;;1.55;1.35;;;;;;;15.91;nan;61213.06;4992903;28;20199;-65
2023/10/29 07:01:58;;;;;;;0.95;0.95;;;;;;;16.03;nan;61275.00;4992621;28;20636;-65
2023/10/29 07:04:24;;;;;;;7.65;1.92;;;;;;;16.05;nan;61406.69;4992580;28;20183;-65
2023/10/29 07:06:49;;;;;;;0.93;0.93;;;;;;;16.09;nan;61248.31;4992387;28;20177;-65
2023/10/29 07:09:15;;;;;;;0.80;0.80;;;;;;;16.53;nan;61310.88;4991149;28;20268;-65
2023/10/29 07:11:45;;;;;;;0.93;0.93;;;;;;;16.45;nan;61175.50;4991754;28;20204;-65
2023/10/29 07:14:11;;;;;;;0.95;0.95;;;;;;;16.61;nan;61327.69;4992447;28;20177;-65
2023/10/29 07:16:43;;;;;;;0.98;0.98;;;;;;;16.67;nan;61383.47;4992484;28;20185;-65
2023/10/29 07:19:09;;;;;;;1.60;1.10;;;;;;;16.99;nan;61390.72;4992523;28;20228;-65
2023/10/29 07:21:34;;;;;;;1.05;1.05;;;;;;;16.90;nan;61444.50;4992413;28;20173;-67
2023/10/29 07:24:03;;;;;;;0.80;0.80;;;;;;;17.06;nan;61607.16;4991109;28;20181;-64
2023/10/29 07:26:28;;;;;;;0.90;0.90;;;;;;;17.12;nan;61477.13;4992415;28;20176;-64
2023/10/29 07:28:54;;;;;;;1.20;1.13;;;;;;;17.24;nan;61364.22;4992580;28;20199;-65
2023/10/29 07:31:19;;;;;;;0.82;0.82;;;;;;;17.38;nan;61500.88;4992129;28;20234;-64
2023/10/29 07:33:44;;;;;;;1.40;1.30;;;;;;;17.51;nan;61471.69;4992341;28;20283;-65
2023/10/29 07:36:10;;;;;;;1.10;1.00;;;;;;;17.82;nan;61439.03;4992154;28;20169;-65
2023/10/29 07:38:35;;;;;;;1.08;1.00;;;;;;;17.67;nan;61575.63;4991638;28;20580;-65
2023/10/29 07:41:01;;;;;;;3.30;1.60;;;;;;;17.61;nan;61452.03;4992333;28;20173;-65
2023/10/29 07:43:26;;;;;;;0.93;0.93;;;;;;;17.90;nan;61549.44;4991874;28;20172;-65
2023/10/29 07:45:52;;;;;;;1.20;1.10;;;;;;;18.01;nan;61486.38;4992156;28;20256;-65
2023/10/29 07:48:21;;;;;;;0.90;0.90;;;;;;;17.96;nan;61693.28;4992084;28;20263;-65
2023/10/29 07:50:52;;;;;;;1.55;1.30;;;;;;;18.01;nan;61571.69;4992256;28;20215;-65
2023/10/29 07:53:19;;;;;;;0.88;0.88;;;;;;;18.27;nan;61598.00;4992389;28;20184;-65
2023/10/29 07:55:44;;;;;;;1.20;1.10;;;;;;;18.34;nan;61469.44;4992049;28;20639;-65
2023/10/29 07:58:10;;;;;;;0.90;0.90;;;;;;;18.43;nan;61530.78;4992060;28;20184;-65
2023/10/29 08:00:35;;;;;;;1.33;1.23;;;;;;;18.57;nan;61543.53;4992159;28;20272;-67
2023/10/29 08:03:01;;;;;;;1.10;1.00;;;;;;;18.83;nan;61541.91;4992019;28;20604;-65
2023/10/29 08:05:26;;;;;;;1.13;1.02;;;;;;;19.16;nan;61563.75;4991190;28;20172;-65
2023/10/29 08:07:52;;;;;;;1.25;1.10;;;;;;;19.17;nan;61728.06;4991901;28;20251;-65
2023/10/29 08:10:17;;;;;;;0.90;0.90;;;;;;;19.08;nan;61546.91;4990543;28;20239;-65
2023/10/29 08:12:43;;;;;;;1.75;1.38;;;;;;;19.01;nan;61748.72;4991729;28;20648;-65
2023/10/29 08:15:08;;;;;;;2.05;1.23;;;;;;;19.23;nan;61602.19;4991583;28;20211;-65
2023/10/29 08:17:34;;;;;;;0.70;0.70;;;;;;;19.30;nan;61589.97;4991417;28;20587;-65
2023/10/29 08:19:59;;;;;;;0.70;0.70;;;;;;;19.41;nan;61643.91;4991848;28;20220;-65
2023/10/29 08:22:25;;;;;;;0.90;0.90;;;;;;;19.28;nan;61623.97;4993714;28;20196;-65
2023/10/29 08:24:51;;;;;;;1.55;0.90;;;;;;;19.58;nan;61641.31;4995806;28;20581;-65
2023/10/29 08:27:17;;;;;;;1.20;1.10;;;;;;;19.76;nan;61675.25;4995246;28;20173;-66
2023/10/29 08:29:43;;;;;;;0.70;0.70;;;;;;;20.03;nan;61668.44;4995325;28;20291;-65
2023/10/29 08:32:09;;;;;;;1.77;1.35;;;;;;;20.11;nan;61823.38;4995499;28;20184;-66
2023/10/29 08:34:34;;;;;;;1.25;1.10;;;;;;;20.34;nan;61726.41;4995547;28;20169;-66
2023/10/29 08:36:59;;;;;;;0.60;0.60;;;;;;;20.46;nan;61818.47;4995118;28;20223;-65
2023/10/29 08:39:25;;;;;;;1.63;0.90;;;;;;;20.64;nan;61781.22;4995669;28;20177;-66
2023/10/29 08:41:51;;;;;;;0.75;0.75;;;;;;;20.61;nan;61747.25;4994888;28;20177;-66
2023/10/29 08:44:20;;;;;;;0.60;0.60;;;;;;;20.73;nan;61744.69;4995146;28;20169;-66
2023/10/29 08:46:46;;;;;;;0.98;0.88;;;;;;;21.07;nan;61803.50;4994574;28;20184;-66
2023/10/29 08:49:12;;;;;;;1.05;0.90;;;;;;;21.02;nan;61777.03;4995671;28;20633;-62
2023/10/29 08:51:37;;;;;;;1.63;1.02;;;;;;;21.35;nan;61865.97;4995448;28;20219;-63
2023/10/29 08:54:03;;;;;;;1.70;1.00;;;;;;;21.36;nan;61846.31;4996313;28;20176;-63
2023/10/29 08:56:32;;;;;;;1.30;0.98;;;;;;;21.48;nan;61792.91;4995578;28;20173;-62
2023/10/29 08:58:58;;;;;;;3.38;1.45;;;;;;;21.74;nan;62045.53;4995290;28;20176;-62
2023/10/29 09:01:23;;;;;;;0.80;0.80;;;;;;;21.72;nan;62027.09;4994365;28;20196;-62
2023/10/29 09:03:48;;;;;;;1.30;1.13;;;;;;;21.90;nan;62177.69;4995345;28;20364;-62
2023/10/29 09:06:14;;;;;;;1.02;0.85;;;;;;;21.83;nan;62003.75;4994776;28;20176;-63
2023/10/29 09:08:40;;;;;;;0.90;0.88;;;;;;;21.99;nan;62063.63;4995568;28;20177;-63
2023/10/29 09:11:05;;;;;;;1.38;1.27;;;;;;;22.22;nan;62023.63;4994716;28;20695;-61
2023/10/29 09:13:31;;;;;;;0.95;0.90;;;;;;;22.42;nan;62049.00;4993699;28;20310;-62
2023/10/29 09:15:57;;;;;;;0.90;0.70;;;;;;;22.51;nan;62116.56;4994903;28;20165;-60
2023/10/29 09:18:23;;;;;;;0.93;0.93;;;;;;;22.48;nan;62144.38;4995094;28;20169;-60
2023/10/29 09:20:50;;;;;;;0.80;0.80;;;;;;;22.63;nan;62127.63;4993707;28;20233;-61
2023/10/29 09:23:16;;;;;;;1.02;0.80;;;;;;;22.71;nan;62121.13;4994485;28;20220;-61
2023/10/29 09:25:45;;;;;;;0.70;0.70;;;;;;;22.75;nan;62143.91;4994581;28;20640;-61
2023/10/29 09:28:12;;;;;;;0.95;0.90;;;;;;;22.80;nan;62117.78;4994844;28;20234;-59
2023/10/29 09:30:41;;;;;;;0.75;0.75;;;;;;;22.81;nan;62166.41;4994782;28;20280;-60
2023/10/29 09:33:08;;;;;;;2.05;1.23;;;;;;;22.82;nan;62136.28;4994639;28;20183;-60
2023/10/29 09:35:35;;;;;;;1.15;1.02;;;;;;;22.81;nan;62148.16;4994589;28;20169;-57
2023/10/29 09:38:00;;;;;;;0.70;0.70;;;;;;;22.98;nan;62155.97;4994893;28;20180;-59
2023/10/29 09:40:26;;;;;;;1.55;1.45;;;;;;;22.99;nan;62121.19;4994412;28;20181;-58
2023/10/29 09:42:54;;;;;;;0.93;0.90;;;;;;;23.00;nan;62239.63;4994520;28;20161;-59
2023/10/29 09:45:24;;;;;;;0.80;0.80;;;;;;;22.95;nan;62160.38;4994253;28;20254;-59
2023/10/29 09:47:50;;;;;;;1.00;0.90;;;;;;;23.08;nan;62156.94;4994325;28;20257;-57
2023/10/29 09:50:16;;;;;;;1.60;1.50;;;;;;;23.17;nan;62175.03;4994259;28;20629;-60
2023/10/29 09:52:42;;;;;;;0.80;0.80;;;;;;;23.05;nan;62140.50;4994636;28;20165;-59
2023/10/29 09:55:08;;;;;;;0.77;0.77;;;;;;;23.11;nan;62262.03;4994451;28;20239;-60
2023/10/29 09:57:34;;;;;;;0.80;0.80;;;;;;;23.27;nan;62186.44;4994107;28;20679;-64
2023/10/29 10:00:00;;;;;;;0.63;0.63;;;;;;;23.38;nan;62219.28;4994626;28;20197;-59
2023/10/29 10:02:26;;;;;;;0.60;0.60;;;;;;;23.10;nan;62190.50;4994216;28;20177;-59
2023/10/29 10:04:52;;;;;;;0.63;0.63;;;;;;;23.30;nan;62203.47;4994086;28;20176;-60
2023/10/29 10:07:19;;;;;;;1.10;1.00;;;;;;;23.34;nan;62189.78;4994262;28;20172;-61
2023/10/29 10:09:54;;;;;;;1.20;0.80;;;;;;;23.58;nan;62232.25;4994227;28;20256;-63
2023/10/29 10:12:20;;;;;;;0.70;0.70;;;;;;;23.84;nan;62281.66;4994075;28;20215;-59
2023/10/29 10:14:46;;;;;;;1.75;0.90;;;;;;;23.88;nan;62247.66;4993876;28;20629;-61
2023/10/29 10:17:12;;;;;;;0.80;0.80;;;;;;;23.88;nan;62276.34;4994074;28;20207;-61
2023/10/29 10:19:39;;;;;;;0.93;0.93;;;;;;;23.86;nan;62297.00;4993489;28;20700;-61
2023/10/29 10:22:05;;;;;;;0.80;0.80;;;;;;;23.91;nan;62294.88;4993712;28;20177;-61
2023/10/29 10:24:43;;;;;;;1.95;1.48;;;;;;;23.86;nan;62315.28;4994028;28;20200;-63
2023/10/29 10:27:09;;;;;;;1.88;1.63;;;;;;;23.86;nan;62268.84;4994112;28;20168;-61
2023/10/29 10:29:34;;;;;;;0.88;0.88;;;;;;;23.85;nan;62280.78;4993692;28;20264;-63
2023/10/29 10:32:04;;;;;;;0.60;0.60;;;;;;;23.84;nan;62250.34;4994004;28;20179;-63
2023/10/29 10:34:31;;;;;;;0.80;0.80;;;;;;;23.43;nan;62230.19;4994011;28;20535;-63
2023/10/29 10:37:04;;;;;;;1.63;1.00;;;;;;;23.86;nan;62370.09;4993406;28;20644;-61
2023/10/29 10:39:31;;;;;;;0.63;0.63;;;;;;;23.94;nan;62261.75;4993721;28;20176;-61
2023/10/29 10:42:00;;;;;;;0.90;0.90;;;;;;;23.92;nan;62290.78;5008510;28;20243;-63
2023/10/29 10:44:26;;;;;;;0.75;0.75;;;;;;;23.86;nan;62283.97;4993363;28;20289;-63
2023/10/29 10:46:54;;;;;;;1.17;0.90;;;;;;;23.66;nan;62243.44;4992711;28;20177;-61
2023/10/29 10:49:21;;;;;;;1.75;1.58;;;;;;;24.04;nan;62254.91;4993669;28;20161;-60
2023/10/29 10:51:48;;;;;;;1.10;1.00;;;;;;;23.97;nan;62275.63;4992872;28;20648;-61
2023/10/29 10:54:19;;;;;;;1.38;0.88;;;;;;;24.04;nan;62356.72;4993073;28;20172;-62
2023/10/29 10:56:45;;;;;;;1.20;1.10;;;;;;;24.01;nan;62290.63;4992116;28;20181;-61
2023/10/29 10:59:11;;;;;;;0.70;0.70;;;;;;;24.07;nan;62308.50;4992953;28;20176;-60
2023/10/29 11:01:38;;;;;;;0.60;0.60;;;;;;;23.94;nan;62240.88;4993169;28;20169;-61
2023/10/29 11:04:07;;;;;;;1.85;1.48;;;;;;;24.10;nan;62444.53;4993000;28;20252;-62
2023/10/29 11:06:37;;;;;;;0.57;0.57;;;;;;;24.15;nan;62348.97;4993323;28;20275;-62
2023/10/29 11:09:14;;;;;;;1.05;0.90;;;;;;;24.23;nan;62289.66;4993110;28;20165;-60
2023/10/29 11:11:48;;;;;;;0.90;0.90;;;;;;;24.19;nan;62301.31;4992598;28;20213;-61
2023/10/29 11:14:15;;;;;;;0.80;0.80;;;;;;;23.93;nan;62242.91;4992961;28;20165;-62
2023/10/29 11:16:54;;;;;;;0.80;0.80;;;;;;;23.93;nan;62268.44;4993299;28;20180;-59
2023/10/29 11:19:43;;;;;;;0.60;0.60;;;;;;;23.92;nan;62269.91;4992219;28;20231;-61
2023/10/29 11:22:18;;;;;;;1.30;1.15;;;;;;;23.86;nan;62253.19;4992606;28;20294;-62
2023/10/29 11:25:04;;;;;;;0.80;0.80;;;;;;;23.96;nan;62295.94;4993075;28;20631;-61
2023/10/29 11:27:44;;;;;;;0.70;0.70;;;;;;;23.93;nan;62255.97;4992813;28;20180;-59
2023/10/29 11:30:13;;;;;;;0.75;0.75;;;;;;;23.87;nan;62256.38;4992693;28;20241;-62
2023/10/29 11:32:40;;;;;;;0.93;0.70;;;;;;;23.88;nan;62267.97;4992853;28;20169;-61
2023/10/29 11:35:15;;;;;;;1.10;1.00;;;;;;;23.98;nan;62248.63;4992749;28;20258;-63
2023/10/29 11:37:42;;;;;;;0.70;0.68;;;;;;;24.18;nan;62357.63;4992383;28;20597;-60
2023/10/29 11:40:25;;;;;;;0.68;0.68;;;;;;;24.29;nan;62426.53;4992226;28;20213;-64
2023/10/29 11:42:55;;;;;;;0.60;0.60;;;;;;;24.24;nan;62465.78;4992256;28;20177;-62
2023/10/29 11:45:29;;;;;;;0.70;0.70;;;;;;;24.36;nan;62283.59;4992664;28;20209;-62
2023/10/29 11:48:10;;;;;;;0.70;0.70;;;;;;;24.45;nan;62351.34;4990804;28;20176;-61